createdAt,value
2023-04-11T00:01:09.109Z,100409.63
2023-04-11T00:03:39.026Z,100417.47
2023-04-11T00:06:06.075Z,100410.47
2023-04-11T00:08:32.443Z,100411.59
2023-04-11T00:10:58.853Z,100400.59
2023-04-11T00:13:26.699Z,100384.34
2023-04-11T00:15:55.559Z,100379.38
2023-04-11T00:18:22.812Z,100339.53
2023-04-11T00:20:49.361Z,100341.53
2023-04-11T00:23:16.089Z,100372.53
2023-04-11T00:25:42.620Z,100383.38
2023-04-11T00:28:10.447Z,100387.22
2023-04-11T00:30:36.931Z,100388.03
2023-04-11T00:33:04.018Z,100378.53
2023-04-11T00:35:34.444Z,100372.34
2023-04-11T00:38:02.081Z,100378.84
2023-04-11T00:40:28.601Z,100384.53
2023-04-11T00:42:56.441Z,100370.28
2023-04-11T00:45:23.418Z,100350.66
2023-04-11T00:47:51.096Z,100339.28
2023-04-11T00:50:18.782Z,100354.78
2023-04-11T00:52:49.562Z,100336.38
2023-04-11T00:55:16.704Z,100353.41
2023-04-11T00:57:44.667Z,100361.59
2023-04-11T01:00:11.979Z,100357.25
2023-04-11T01:02:43.019Z,100348.22
2023-04-11T01:05:11.462Z,100320.94
2023-04-11T01:07:39.888Z,100324.25
2023-04-11T01:10:09.468Z,100340.53
2023-04-11T01:12:37.296Z,100303.53
2023-04-11T01:15:04.649Z,100320.81
2023-04-11T01:17:32.522Z,100343.03
2023-04-11T01:19:59.962Z,100310.75
2023-04-11T01:22:28.026Z,100301.19
2023-04-11T01:24:54.448Z,100282.13
2023-04-11T01:27:20.874Z,100303.41
2023-04-11T01:29:47.313Z,100328.16
2023-04-11T01:32:13.721Z,100319.16
2023-04-11T01:34:43.872Z,100305.31
2023-04-11T01:37:10.490Z,100303.78
2023-04-11T01:39:36.953Z,100315.63
2023-04-11T01:42:04.512Z,100309.44
2023-04-11T01:44:33.072Z,100281.19
2023-04-11T01:46:59.844Z,100313.94
2023-04-11T01:49:26.469Z,100315.09
2023-04-11T01:51:53.194Z,100313.25
2023-04-11T01:54:19.633Z,100301.41
2023-04-11T01:56:46.403Z,100309.22
2023-04-11T01:59:13.113Z,100278.31
2023-04-11T02:01:42.262Z,100308.03
2023-04-11T02:04:09.032Z,100302.41
2023-04-11T02:06:35.996Z,100288.34
2023-04-11T02:09:02.481Z,100283.78
2023-04-11T02:11:29.221Z,100292.50
2023-04-11T02:13:55.626Z,100306.84
2023-04-11T02:16:25.670Z,100282.56
2023-04-11T02:18:53.231Z,100301.66
2023-04-11T02:21:19.670Z,100305.47
2023-04-11T02:23:46.093Z,100306.31
2023-04-11T02:26:12.721Z,100301.81
2023-04-11T02:28:39.122Z,100312.16
2023-04-11T02:31:06.034Z,100289.44
2023-04-11T02:33:32.614Z,100231.56
2023-04-11T02:35:59.104Z,100267.06
2023-04-11T02:38:25.814Z,100266.00
2023-04-11T02:40:52.254Z,100259.75
2023-04-11T02:43:18.723Z,100258.75
2023-04-11T02:45:45.163Z,100263.56
2023-04-11T02:48:11.757Z,100245.00
2023-04-11T02:50:41.132Z,100233.41
2023-04-11T02:53:08.074Z,100264.75
2023-04-11T02:55:35.050Z,100256.53
2023-04-11T02:58:01.651Z,100295.28
2023-04-11T03:00:29.232Z,100271.69
2023-04-11T03:02:56.808Z,100292.63
2023-04-11T03:05:23.409Z,100283.72
2023-04-11T03:07:49.998Z,100257.75
2023-04-11T03:10:16.568Z,100265.28
2023-04-11T03:12:43.106Z,100270.59
2023-04-11T03:15:09.807Z,100236.41
2023-04-11T03:17:36.312Z,100242.44
2023-04-11T03:20:07.099Z,100239.38
2023-04-11T03:22:33.511Z,100217.16
2023-04-11T03:24:59.920Z,100248.41
2023-04-11T03:27:27.049Z,100223.66
2023-04-11T03:29:53.734Z,100241.88
2023-04-11T03:32:20.352Z,100236.28
2023-04-11T03:34:46.825Z,100251.44
2023-04-11T03:37:13.215Z,100225.72
2023-04-11T03:39:39.611Z,100264.47
2023-04-11T03:42:06.064Z,100245.28
2023-04-11T03:44:32.562Z,100278.84
2023-04-11T03:46:59.004Z,100264.06
2023-04-11T03:49:25.468Z,100275.97
2023-04-11T03:51:52.129Z,100265.22
2023-04-11T03:54:18.704Z,100224.38
2023-04-11T03:56:45.232Z,100272.75
2023-04-11T03:59:11.735Z,100270.00
2023-04-11T04:01:38.598Z,100264.19
2023-04-11T04:04:05.865Z,100274.63
2023-04-11T04:06:32.411Z,100283.94
2023-04-11T04:08:59.712Z,100274.13
2023-04-11T04:11:26.238Z,100278.13
2023-04-11T04:13:52.866Z,100279.59
2023-04-11T04:16:19.383Z,100294.28
2023-04-11T04:18:45.977Z,100290.38
2023-04-11T04:21:12.663Z,100293.88
2023-04-11T04:23:47.466Z,100307.63
2023-04-11T04:26:16.236Z,100287.53
2023-04-11T04:28:46.387Z,100286.53
2023-04-11T04:31:13.216Z,100288.06
2023-04-11T04:33:42.752Z,100294.63
2023-04-11T04:36:12.276Z,100308.25
2023-04-11T04:38:42.051Z,100309.09
2023-04-11T04:41:14.957Z,100292.28
2023-04-11T04:43:44.761Z,100297.88
2023-04-11T04:46:11.362Z,100300.84
2023-04-11T04:48:38.132Z,100264.91
2023-04-11T04:51:05.590Z,100313.72
2023-04-11T04:53:34.635Z,100294.03
2023-04-11T04:56:01.859Z,100310.22
2023-04-11T04:58:28.361Z,100310.72
2023-04-11T05:00:56.287Z,100320.53
2023-04-11T05:03:23.165Z,100318.44
2023-04-11T05:05:49.887Z,100305.13
2023-04-11T05:08:19.471Z,100309.31
2023-04-11T05:10:46.159Z,100306.22
2023-04-11T05:13:12.740Z,100291.66
2023-04-11T05:15:39.176Z,100292.09
2023-04-11T05:18:05.842Z,100310.72
2023-04-11T05:20:32.271Z,100311.84
2023-04-11T05:22:58.742Z,100303.84
2023-04-11T05:25:25.964Z,100305.66
2023-04-11T05:27:52.371Z,100299.78
2023-04-11T05:30:18.910Z,100286.41
2023-04-11T05:32:46.443Z,100302.91
2023-04-11T05:35:13.108Z,100307.41
2023-04-11T05:37:40.059Z,100271.34
2023-04-11T05:40:08.850Z,100314.94
2023-04-11T05:42:35.597Z,100317.16
2023-04-11T05:45:01.983Z,100331.88
2023-04-11T05:47:28.451Z,100322.19
2023-04-11T05:49:54.920Z,100334.03
2023-04-11T05:52:21.356Z,100339.59
2023-04-11T05:54:47.812Z,100300.13
2023-04-11T05:57:14.227Z,100325.53
2023-04-11T05:59:40.630Z,100336.00
2023-04-11T06:02:07.099Z,100336.97
2023-04-11T06:04:33.928Z,100259.13
2023-04-11T06:07:02.467Z,100318.03
2023-04-11T06:09:29.401Z,100331.59
2023-04-11T06:11:57.683Z,100334.63
2023-04-11T06:14:24.124Z,100324.66
2023-04-11T06:16:50.588Z,100339.53
2023-04-11T06:19:17.003Z,100342.13
2023-04-11T06:21:43.403Z,100335.81
2023-04-11T06:24:10.974Z,100308.97
2023-04-11T06:26:37.367Z,100336.94
2023-04-11T06:29:05.713Z,100326.19
2023-04-11T06:31:33.150Z,100341.28
2023-04-11T06:34:02.823Z,100349.16
2023-04-11T06:36:29.842Z,100341.16
2023-04-11T06:38:56.277Z,100345.78
2023-04-11T06:41:23.176Z,100320.47
2023-04-11T06:43:49.616Z,100351.22
2023-04-11T06:46:16.196Z,100334.81
2023-04-11T06:48:42.907Z,100349.47
2023-04-11T06:51:10.552Z,100306.69
2023-04-11T06:53:37.218Z,100338.09
2023-04-11T06:56:04.008Z,100359.53
2023-04-11T06:58:30.562Z,100354.09
2023-04-11T07:00:56.998Z,100366.69
2023-04-11T07:03:25.174Z,100346.78
2023-04-11T07:05:52.168Z,100366.59
2023-04-11T07:08:18.776Z,100378.50
2023-04-11T07:10:45.446Z,100369.34
2023-04-11T07:13:12.009Z,100378.66
2023-04-11T07:15:38.522Z,100390.16
2023-04-11T07:18:05.023Z,100399.75
2023-04-11T07:20:33.059Z,100401.22
2023-04-11T07:22:59.515Z,100348.94
2023-04-11T07:25:30.378Z,100408.53
2023-04-11T07:27:57.043Z,100400.50
2023-04-11T07:30:23.687Z,100378.75
2023-04-11T07:32:50.228Z,100407.44
2023-04-11T07:35:16.950Z,100408.66
2023-04-11T07:37:43.399Z,100420.72
2023-04-11T07:40:11.878Z,100407.47
2023-04-11T07:42:38.418Z,100403.44
2023-04-11T07:45:05.716Z,100421.81
2023-04-11T07:47:32.184Z,100423.09
2023-04-11T07:49:58.952Z,100392.63
2023-04-11T07:52:26.017Z,100430.28
2023-04-11T07:54:52.512Z,100439.41
2023-04-11T07:57:19.113Z,100439.25
2023-04-11T07:59:46.232Z,100428.22
2023-04-11T08:02:12.955Z,100427.53
2023-04-11T08:04:39.787Z,100450.66
2023-04-11T08:07:06.874Z,100442.38
2023-04-11T08:09:34.380Z,100450.09
2023-04-11T08:12:01.732Z,100456.41
2023-04-11T08:14:28.170Z,100454.84
2023-04-11T08:16:54.758Z,100455.00
2023-04-11T08:19:21.305Z,100449.16
2023-04-11T08:21:47.748Z,100404.91
2023-04-11T08:24:14.173Z,100446.06
2023-04-11T08:26:40.746Z,100453.75
2023-04-11T08:29:11.346Z,100451.81
2023-04-11T08:31:44.525Z,100463.13
2023-04-11T08:34:12.046Z,100455.56
2023-04-11T08:36:38.947Z,100455.41
2023-04-11T08:39:05.430Z,100459.34
2023-04-11T08:41:32.302Z,100442.94
2023-04-11T08:43:59.263Z,100448.13
2023-04-11T08:46:25.754Z,100459.59
2023-04-11T08:48:52.334Z,100462.94
2023-04-11T08:51:29.271Z,100466.88
2023-04-11T08:54:00.484Z,100442.38
2023-04-11T08:56:26.903Z,100464.59
2023-04-11T08:58:53.365Z,100437.59
2023-04-11T09:01:33.134Z,100462.06
2023-04-11T09:04:01.504Z,100450.81
2023-04-11T09:06:33.550Z,100425.47
2023-04-11T09:09:02.092Z,100432.28
2023-04-11T09:11:28.580Z,100462.03
2023-04-11T09:14:11.234Z,100450.03
2023-04-11T09:16:53.048Z,100445.63
2023-04-11T09:19:27.874Z,100467.84
2023-04-11T09:21:56.772Z,100460.81
2023-04-11T09:24:23.414Z,100461.66
2023-04-11T09:26:50.957Z,100449.38
2023-04-11T09:29:40.750Z,100461.06
2023-04-11T09:32:07.745Z,100447.25
2023-04-11T09:34:37.760Z,100425.44
2023-04-11T09:37:04.480Z,100435.78
2023-04-11T09:39:32.573Z,100461.50
2023-04-11T09:41:59.346Z,100446.03
2023-04-11T09:44:38.039Z,100455.59
2023-04-11T09:47:04.960Z,100455.34
2023-04-11T09:49:34.172Z,100446.91
2023-04-11T09:52:01.277Z,100467.09
2023-04-11T09:54:28.842Z,100465.50
2023-04-11T09:56:57.137Z,100458.16
2023-04-11T09:59:26.713Z,100469.19
2023-04-11T10:01:53.538Z,100461.53
2023-04-11T10:04:21.260Z,100461.75
2023-04-11T10:07:02.159Z,100474.94
2023-04-11T10:09:29.795Z,100473.06
2023-04-11T10:11:56.826Z,100477.44
2023-04-11T10:14:43.789Z,100480.59
2023-04-11T10:17:21.829Z,100463.34
2023-04-11T10:19:51.575Z,100494.97
2023-04-11T10:22:43.783Z,100486.47
2023-04-11T10:25:17.481Z,100500.25
2023-04-11T10:27:49.971Z,100497.44
2023-04-11T10:30:16.869Z,100494.75
2023-04-11T10:33:10.127Z,100491.31
2023-04-11T10:35:55.628Z,100514.22
2023-04-11T10:38:37.169Z,100517.56
2023-04-11T10:41:31.292Z,100522.22
2023-04-11T10:44:14.762Z,100514.78
2023-04-11T10:46:45.396Z,100526.16
2023-04-11T10:49:11.991Z,100491.84
2023-04-11T10:51:38.437Z,100526.53
2023-04-11T10:54:05.169Z,100538.81
2023-04-11T10:56:58.575Z,100548.47
2023-04-11T10:59:31.073Z,100544.50
2023-04-11T11:02:02.119Z,100561.50
2023-04-11T11:04:32.497Z,100557.25
2023-04-11T11:07:01.387Z,100555.13
2023-04-11T11:09:28.771Z,100576.19
2023-04-11T11:12:14.039Z,100569.06
2023-04-11T11:14:42.958Z,100569.47
2023-04-11T11:17:11.834Z,100566.31
2023-04-11T11:19:43.772Z,100573.00
2023-04-11T11:22:17.185Z,100583.75
2023-04-11T11:24:43.649Z,100557.34
2023-04-11T11:27:19.913Z,100592.16
2023-04-11T11:29:46.437Z,100597.16
2023-04-11T11:32:22.879Z,100607.09
2023-04-11T11:34:49.458Z,100607.25
2023-04-11T11:37:16.265Z,100604.56
2023-04-11T11:39:43.590Z,100553.91
2023-04-11T11:42:10.370Z,100618.63
2023-04-11T11:44:37.560Z,100623.28
2023-04-11T11:47:06.276Z,100624.72
2023-04-11T11:49:46.915Z,100637.47
2023-04-11T11:52:31.676Z,100620.06
2023-04-11T11:54:58.414Z,100644.31
2023-04-11T11:57:24.932Z,100639.81
2023-04-11T11:59:56.165Z,100645.31
2023-04-11T12:02:27.346Z,100656.09
2023-04-11T12:05:01.311Z,100650.69
2023-04-11T12:07:32.544Z,100656.78
2023-04-11T12:10:09.019Z,100637.88
2023-04-11T12:12:38.015Z,100649.00
2023-04-11T12:15:17.117Z,100660.41
2023-04-11T12:17:47.559Z,100680.19
2023-04-11T12:20:15.768Z,100670.72
2023-04-11T12:22:42.620Z,100628.38
2023-04-11T12:25:11.634Z,100690.19
2023-04-11T12:27:39.562Z,100675.53
2023-04-11T12:30:06.811Z,100694.69
2023-04-11T12:32:34.311Z,100685.63
2023-04-11T12:35:05.271Z,100684.50
2023-04-11T12:37:33.242Z,100705.88
2023-04-11T12:40:00.355Z,100692.72
2023-04-11T12:42:27.554Z,100677.72
2023-04-11T12:44:54.724Z,100694.69
2023-04-11T12:47:21.332Z,100698.47
2023-04-11T12:49:47.851Z,100714.56
2023-04-11T12:52:14.314Z,100697.47
2023-04-11T12:54:41.178Z,100704.94
2023-04-11T12:57:07.955Z,100713.09
2023-04-11T12:59:34.555Z,100696.53
2023-04-11T13:02:01.986Z,100718.19
2023-04-11T13:04:28.794Z,100707.03
2023-04-11T13:07:00.709Z,100717.94
2023-04-11T13:09:34.217Z,100662.53
2023-04-11T13:12:04.098Z,100724.31
2023-04-11T13:14:31.015Z,100722.00
2023-04-11T13:16:57.791Z,100726.34
2023-04-11T13:19:24.295Z,100725.66
2023-04-11T13:21:50.825Z,100730.19
2023-04-11T13:24:17.434Z,100746.63
2023-04-11T13:26:44.964Z,100735.06
2023-04-11T13:29:12.200Z,100726.31
2023-04-11T13:31:39.037Z,100728.16
2023-04-11T13:34:05.576Z,100748.75
2023-04-11T13:36:32.359Z,100752.38
2023-04-11T13:38:59.163Z,100766.31
2023-04-11T13:41:26.009Z,100765.47
2023-04-11T13:43:53.005Z,100772.22
2023-04-11T13:46:21.734Z,100779.38
2023-04-11T13:48:48.593Z,100778.06
2023-04-11T13:51:15.187Z,100775.81
2023-04-11T13:53:45.539Z,100788.91
2023-04-11T13:56:11.886Z,100801.56
2023-04-11T13:58:39.005Z,100790.09
2023-04-11T14:01:06.872Z,100792.81
2023-04-11T14:03:33.835Z,100802.91
2023-04-11T14:06:01.551Z,100787.84
2023-04-11T14:08:29.113Z,100810.31
2023-04-11T14:10:55.797Z,100797.81
2023-04-11T14:13:22.352Z,100805.81
2023-04-11T14:15:54.727Z,100814.22
2023-04-11T14:18:31.824Z,100813.63
2023-04-11T14:21:01.113Z,100814.03
2023-04-11T14:23:28.997Z,100813.06
2023-04-11T14:25:55.473Z,100812.38
2023-04-11T14:28:22.338Z,100810.25
2023-04-11T14:30:48.919Z,100820.22
2023-04-11T14:33:15.668Z,100819.25
2023-04-11T14:35:42.832Z,100800.31
2023-04-11T14:38:09.308Z,100832.59
2023-04-11T14:40:35.762Z,100835.81
2023-04-11T14:43:02.299Z,100832.88
2023-04-11T14:45:28.788Z,100831.34
2023-04-11T14:47:55.305Z,100835.28
2023-04-11T14:50:21.821Z,100832.19
2023-04-11T14:52:48.629Z,100831.09
2023-04-11T14:55:15.156Z,100828.75
2023-04-11T14:57:44.308Z,100843.34
2023-04-11T15:00:17.984Z,100853.72
2023-04-11T15:02:45.608Z,100863.25
2023-04-11T15:05:15.776Z,100849.38
2023-04-11T15:07:42.879Z,100857.19
2023-04-11T15:10:09.769Z,100857.44
2023-04-11T15:12:36.234Z,100870.06
2023-04-11T15:15:03.348Z,100857.69
2023-04-11T15:17:29.784Z,100860.88
2023-04-11T15:19:56.954Z,100862.69
2023-04-11T15:22:23.624Z,100862.97
2023-04-11T15:24:50.945Z,100872.91
2023-04-11T15:27:20.940Z,100873.19
2023-04-11T15:29:47.587Z,100868.16
2023-04-11T15:32:14.004Z,100866.03
2023-04-11T15:34:41.983Z,100874.06
2023-04-11T15:37:11.485Z,100873.25
2023-04-11T15:39:37.988Z,100867.13
2023-04-11T15:42:04.854Z,100860.09
2023-04-11T15:44:31.326Z,100874.59
2023-04-11T15:46:57.862Z,100862.41
2023-04-11T15:49:24.481Z,100873.94
2023-04-11T15:51:51.085Z,100888.56
2023-04-11T15:54:17.543Z,100884.75
2023-04-11T15:56:44.010Z,100885.75
2023-04-11T15:59:12.866Z,100901.22
2023-04-11T16:01:40.440Z,100892.50
2023-04-11T16:04:11.364Z,100888.97
2023-04-11T16:06:37.935Z,100884.78
2023-04-11T16:09:04.564Z,100875.94
2023-04-11T16:11:31.037Z,100869.31
2023-04-11T16:13:57.972Z,100872.41
2023-04-11T16:16:24.710Z,100872.69
2023-04-11T16:18:52.402Z,100871.16
2023-04-11T16:21:18.909Z,100881.66
2023-04-11T16:23:45.691Z,100895.84
2023-04-11T16:26:12.118Z,100850.91
2023-04-11T16:28:38.650Z,100866.78
2023-04-11T16:31:05.395Z,100895.25
2023-04-11T16:33:31.824Z,100901.16
2023-04-11T16:35:58.319Z,100896.50
2023-04-11T16:38:24.828Z,100891.84
2023-04-11T16:40:51.253Z,100885.69
2023-04-11T16:43:17.791Z,100906.66
2023-04-11T16:45:44.658Z,100917.00
2023-04-11T16:48:11.682Z,100903.97
2023-04-11T16:50:38.655Z,100915.34
2023-04-11T16:53:05.262Z,100908.91
2023-04-11T16:55:31.752Z,100917.63
2023-04-11T16:57:58.274Z,100919.88
2023-04-11T17:00:25.064Z,100925.38
2023-04-11T17:02:51.717Z,100910.63
2023-04-11T17:05:18.905Z,100926.91
2023-04-11T17:07:45.422Z,100929.00
2023-04-11T17:10:12.367Z,100893.50
2023-04-11T17:12:38.952Z,100928.28
2023-04-11T17:15:08.338Z,100940.78
2023-04-11T17:17:35.160Z,100931.09
2023-04-11T17:20:07.640Z,100852.41
2023-04-11T17:22:34.060Z,100931.81
2023-04-11T17:25:00.509Z,100935.34
2023-04-11T17:27:27.279Z,100908.91
2023-04-11T17:29:53.828Z,100947.13
2023-04-11T17:32:20.339Z,100947.25
2023-04-11T17:34:47.744Z,100942.50
2023-04-11T17:37:14.193Z,100950.38
2023-04-11T17:39:41.545Z,100945.56
2023-04-11T17:42:08.175Z,100945.00
2023-04-11T17:44:34.778Z,100943.44
2023-04-11T17:47:01.243Z,100941.06
2023-04-11T17:49:27.732Z,100931.34
2023-04-11T17:51:59.133Z,100944.28
2023-04-11T17:54:26.044Z,100951.84
2023-04-11T17:56:52.652Z,100947.75
2023-04-11T17:59:19.303Z,100950.00
2023-04-11T18:01:47.013Z,100945.72
2023-04-11T18:04:14.621Z,100929.69
2023-04-11T18:06:42.602Z,100920.00
2023-04-11T18:09:09.218Z,100947.22
2023-04-11T18:11:36.305Z,100951.59
2023-04-11T18:14:02.860Z,100951.13
2023-04-11T18:16:29.461Z,100956.59
2023-04-11T18:18:56.817Z,100952.22
2023-04-11T18:21:23.222Z,100944.47
2023-04-11T18:23:49.840Z,100967.22
2023-04-11T18:26:16.322Z,100961.25
2023-04-11T18:28:42.973Z,100965.44
2023-04-11T18:31:10.282Z,100968.13
2023-04-11T18:33:40.260Z,100971.75
2023-04-11T18:36:08.130Z,100962.63
2023-04-11T18:38:34.641Z,100948.53
2023-04-11T18:41:06.701Z,100967.47
2023-04-11T18:43:34.094Z,100978.13
2023-04-11T18:46:03.770Z,100966.97
2023-04-11T18:48:31.656Z,100969.63
2023-04-11T18:50:59.434Z,100980.13
2023-04-11T18:53:26.212Z,100984.38
2023-04-11T18:56:05.981Z,100937.34
2023-04-11T18:59:09.253Z,100980.47
2023-04-11T19:01:36.996Z,100973.75
2023-04-11T19:04:03.929Z,100974.06
2023-04-11T19:06:30.829Z,100968.06
2023-04-11T19:08:57.374Z,100975.59
2023-04-11T19:11:23.832Z,100976.31
2023-04-11T19:14:07.157Z,100977.09
2023-04-11T19:16:40.431Z,100881.34
2023-04-11T19:19:06.867Z,100970.66
2023-04-11T19:21:33.378Z,100939.53
2023-04-11T19:23:59.871Z,100973.81
2023-04-11T19:26:27.310Z,100977.22
2023-04-11T19:28:55.027Z,100969.84
2023-04-11T19:31:27.131Z,100973.84
2023-04-11T19:33:53.611Z,100970.91
2023-04-11T19:36:20.085Z,100967.06
2023-04-11T19:38:46.961Z,100964.03
2023-04-11T19:41:15.039Z,100941.44
2023-04-11T19:43:42.892Z,100964.88
2023-04-11T19:46:12.057Z,100964.38
2023-04-11T19:48:42.600Z,100962.91
2023-04-11T19:51:10.508Z,100937.28
2023-04-11T19:53:38.304Z,100963.63
2023-04-11T19:56:07.149Z,100951.91
2023-04-11T19:58:35.257Z,100952.72
2023-04-11T20:01:02.955Z,100950.75
2023-04-11T20:03:29.653Z,100955.75
2023-04-11T20:05:56.990Z,100964.03
2023-04-11T20:08:26.386Z,100953.03
2023-04-11T20:10:54.368Z,100924.13
2023-04-11T20:13:20.917Z,100954.69
2023-04-11T20:15:47.372Z,100948.75
2023-04-11T20:18:14.045Z,100943.94
2023-04-11T20:20:40.517Z,100920.16
2023-04-11T20:23:07.022Z,100946.28
2023-04-11T20:25:34.694Z,100946.88
2023-04-11T20:28:01.747Z,100943.59
2023-04-11T20:30:30.052Z,100909.22
2023-04-11T20:32:56.708Z,100946.69
2023-04-11T20:35:23.315Z,100947.84
2023-04-11T20:37:50.220Z,100915.00
2023-04-11T20:40:17.254Z,100942.41
2023-04-11T20:42:47.699Z,100938.38
2023-04-11T20:45:16.778Z,100935.13
2023-04-11T20:47:46.204Z,100932.69
2023-04-11T20:50:17.486Z,100928.78
2023-04-11T20:52:45.991Z,100943.72
2023-04-11T20:55:16.074Z,100933.69
2023-04-11T20:57:42.946Z,100945.13
2023-04-11T21:00:13.853Z,100935.06
2023-04-11T21:02:44.109Z,100937.84
2023-04-11T21:05:12.029Z,100944.31
2023-04-11T21:07:39.356Z,100938.50
2023-04-11T21:10:07.371Z,100936.88
2023-04-11T21:12:34.797Z,100936.34
2023-04-11T21:15:02.451Z,100941.88
2023-04-11T21:17:32.836Z,100904.09
2023-04-11T21:20:00.535Z,100940.81
2023-04-11T21:22:27.307Z,100931.53
2023-04-11T21:24:53.742Z,100924.75
2023-04-11T21:27:20.188Z,100906.03
2023-04-11T21:29:46.697Z,100899.47
2023-04-11T21:32:13.240Z,100914.38
2023-04-11T21:34:39.720Z,100882.75
2023-04-11T21:37:06.281Z,100912.69
2023-04-11T21:39:32.682Z,100915.22
2023-04-11T21:42:00.153Z,100901.81
2023-04-11T21:44:26.611Z,100867.84
2023-04-11T21:46:53.236Z,100907.19
2023-04-11T21:49:19.788Z,100904.88
2023-04-11T21:51:46.196Z,100902.53
2023-04-11T21:54:12.710Z,100893.44
2023-04-11T21:56:39.468Z,100894.38
2023-04-11T21:59:06.094Z,100887.72
2023-04-11T22:01:32.576Z,100890.69
2023-04-11T22:03:59.649Z,100870.34
2023-04-11T22:06:26.604Z,100892.91
2023-04-11T22:08:53.139Z,100889.50
2023-04-11T22:11:20.307Z,100887.91
2023-04-11T22:13:48.239Z,100858.16
2023-04-11T22:16:14.737Z,100882.97
2023-04-11T22:18:47.398Z,100881.38
2023-04-11T22:21:21.619Z,100847.28
2023-04-11T22:23:55.904Z,100854.28
2023-04-11T22:26:33.961Z,100853.44
2023-04-11T22:29:05.370Z,100852.03
2023-04-11T22:31:38.332Z,100857.41
2023-04-11T22:34:05.350Z,100867.38
2023-04-11T22:36:35.826Z,100851.06
2023-04-11T22:39:06.791Z,100866.16
2023-04-11T22:41:35.370Z,100857.81
2023-04-11T22:44:02.526Z,100849.63
2023-04-11T22:46:39.634Z,100848.03
2023-04-11T22:49:09.637Z,100861.72
2023-04-11T22:51:37.987Z,100849.53
2023-04-11T22:54:05.186Z,100841.19
2023-04-11T22:56:31.667Z,100849.31
2023-04-11T22:58:58.524Z,100839.03
2023-04-11T23:01:24.975Z,100843.47
2023-04-11T23:03:51.923Z,100823.81
2023-04-11T23:06:19.791Z,100844.53
2023-04-11T23:08:46.666Z,100836.69
2023-04-11T23:11:13.228Z,100829.81
2023-04-11T23:13:39.687Z,100835.75
2023-04-11T23:16:06.929Z,100846.31
2023-04-11T23:18:33.356Z,100807.50
2023-04-11T23:20:59.886Z,100831.13
2023-04-11T23:23:26.321Z,100808.91
2023-04-11T23:25:53.194Z,100823.19
2023-04-11T23:28:19.803Z,100820.34
2023-04-11T23:30:46.521Z,100825.75
2023-04-11T23:33:13.803Z,100825.34
2023-04-11T23:35:40.280Z,100822.56
2023-04-11T23:38:06.902Z,100811.81
2023-04-11T23:40:33.592Z,100809.72
2023-04-11T23:43:00.056Z,100808.56
2023-04-11T23:45:26.601Z,100798.72
2023-04-11T23:47:53.208Z,100787.84
2023-04-11T23:50:19.957Z,100794.72
2023-04-11T23:52:47.030Z,100782.16
2023-04-11T23:55:14.100Z,100755.84
2023-04-11T23:57:40.652Z,100781.00
